sensor_id;sensor_type;location;lat;lon;timestamp;P1;durP1;ratioP1;P2;durP2;ratioP2
10653;SDS011;5375;51.250;6.776;2024-01-15T00:00:42;4.53;;;3.80;;
10653;SDS011;5375;51.250;6.776;2024-01-15T00:03:08;4.23;;;3.50;;
10653;SDS011;5375;51.250;6.776;2024-01-15T00:05:34;4.50;;;3.70;;
10653;SDS011;5375;51.250;6.776;2024-01-15T00:08:00;5.80;;;3.77;;
10653;SDS011;5375;51.250;6.776;2024-01-15T00:10:26;5.40;;;3.87;;
10653;SDS011;5375;51.250;6.776;2024-01-15T00:12:52;4.47;;;3.27;;
10653;SDS011;5375;51.250;6.776;2024-01-15T00:15:18;4.20;;;3.27;;
10653;SDS011;5375;51.250;6.776;2024-01-15T00:17:45;4.23;;;3.33;;
10653;SDS011;5375;51.250;6.776;2024-01-15T00:20:11;5.47;;;3.23;;
10653;SDS011;5375;51.250;6.776;2024-01-15T00:22:37;5.07;;;3.47;;
10653;SDS011;5375;51.250;6.776;2024-01-15T00:25:03;4.90;;;3.50;;
10653;SDS011;5375;51.250;6.776;2024-01-15T00:27:29;4.17;;;3.17;;
10653;SDS011;5375;51.250;6.776;2024-01-15T00:29:55;4.13;;;3.17;;
10653;SDS011;5375;51.250;6.776;2024-01-15T00:32:21;4.43;;;3.43;;
10653;SDS011;5375;51.250;6.776;2024-01-15T00:34:47;4.13;;;3.03;;
10653;SDS011;5375;51.250;6.776;2024-01-15T00:37:15;4.17;;;3.27;;
10653;SDS011;5375;51.250;6.776;2024-01-15T00:39:41;4.43;;;3.40;;
10653;SDS011;5375;51.250;6.776;2024-01-15T00:42:10;4.27;;;3.60;;
10653;SDS011;5375;51.250;6.776;2024-01-15T00:44:36;4.93;;;3.37;;
10653;SDS011;5375;51.250;6.776;2024-01-15T00:47:02;5.10;;;3.23;;
10653;SDS011;5375;51.250;6.776;2024-01-15T00:49:28;4.50;;;3.47;;
10653;SDS011;5375;51.250;6.776;2024-01-15T00:51:54;4.70;;;3.10;;
10653;SDS011;5375;51.250;6.776;2024-01-15T00:54:20;4.37;;;3.30;;
10653;SDS011;5375;51.250;6.776;2024-01-15T00:56:46;4.60;;;3.87;;
10653;SDS011;5375;51.250;6.776;2024-01-15T00:59:12;4.53;;;3.20;;
10653;SDS011;5375;51.250;6.776;2024-01-15T01:01:40;4.60;;;3.50;;
10653;SDS011;5375;51.250;6.776;2024-01-15T01:04:08;4.50;;;3.00;;
10653;SDS011;5375;51.250;6.776;2024-01-15T01:06:34;4.30;;;3.27;;
10653;SDS011;5375;51.250;6.776;2024-01-15T01:09:00;3.93;;;3.20;;
10653;SDS011;5375;51.250;6.776;2024-01-15T01:11:26;4.37;;;3.37;;
10653;SDS011;5375;51.250;6.776;2024-01-15T01:13:52;3.97;;;3.37;;
10653;SDS011;5375;51.250;6.776;2024-01-15T01:16:18;4.07;;;3.50;;
10653;SDS011;5375;51.250;6.776;2024-01-15T01:18:44;4.03;;;3.30;;
10653;SDS011;5375;51.250;6.776;2024-01-15T01:21:10;3.90;;;3.50;;
10653;SDS011;5375;51.250;6.776;2024-01-15T01:23:36;3.77;;;3.07;;
10653;SDS011;5375;51.250;6.776;2024-01-15T01:26:02;6.03;;;3.50;;
10653;SDS011;5375;51.250;6.776;2024-01-15T01:28:28;5.03;;;3.60;;
10653;SDS011;5375;51.250;6.776;2024-01-15T01:30:54;4.47;;;3.33;;
10653;SDS011;5375;51.250;6.776;2024-01-15T01:33:20;4.73;;;3.60;;
10653;SDS011;5375;51.250;6.776;2024-01-15T01:35:46;5.07;;;3.40;;
10653;SDS011;5375;51.250;6.776;2024-01-15T01:38:12;4.57;;;3.43;;
10653;SDS011;5375;51.250;6.776;2024-01-15T01:40:38;4.40;;;3.00;;
10653;SDS011;5375;51.250;6.776;2024-01-15T01:43:04;4.20;;;3.37;;
10653;SDS011;5375;51.250;6.776;2024-01-15T01:45:31;4.53;;;3.33;;
10653;SDS011;5375;51.250;6.776;2024-01-15T01:47:57;4.07;;;3.20;;
10653;SDS011;5375;51.250;6.776;2024-01-15T01:50:23;4.77;;;3.40;;
10653;SDS011;5375;51.250;6.776;2024-01-15T01:52:49;5.97;;;3.47;;
10653;SDS011;5375;51.250;6.776;2024-01-15T01:55:15;3.93;;;3.17;;
10653;SDS011;5375;51.250;6.776;2024-01-15T01:57:41;4.07;;;3.07;;
10653;SDS011;5375;51.250;6.776;2024-01-15T02:00:07;3.73;;;3.20;;
10653;SDS011;5375;51.250;6.776;2024-01-15T02:02:33;3.40;;;3.00;;
10653;SDS011;5375;51.250;6.776;2024-01-15T02:05:00;4.53;;;3.30;;
10653;SDS011;5375;51.250;6.776;2024-01-15T02:07:26;4.03;;;3.23;;
10653;SDS011;5375;51.250;6.776;2024-01-15T02:09:52;4.23;;;3.40;;
10653;SDS011;5375;51.250;6.776;2024-01-15T02:12:18;4.17;;;3.20;;
10653;SDS011;5375;51.250;6.776;2024-01-15T02:14:44;4.30;;;3.13;;
10653;SDS011;5375;51.250;6.776;2024-01-15T02:17:10;4.07;;;3.00;;
10653;SDS011;5375;51.250;6.776;2024-01-15T02:19:36;3.63;;;3.10;;
10653;SDS011;5375;51.250;6.776;2024-01-15T02:22:02;3.43;;;2.83;;
10653;SDS011;5375;51.250;6.776;2024-01-15T02:24:27;3.70;;;2.97;;
10653;SDS011;5375;51.250;6.776;2024-01-15T02:26:53;3.83;;;3.20;;
10653;SDS011;5375;51.250;6.776;2024-01-15T02:29:19;5.73;;;3.23;;
10653;SDS011;5375;51.250;6.776;2024-01-15T02:31:45;4.13;;;3.30;;
10653;SDS011;5375;51.250;6.776;2024-01-15T02:34:11;4.17;;;3.00;;
10653;SDS011;5375;51.250;6.776;2024-01-15T02:36:40;3.47;;;2.70;;
10653;SDS011;5375;51.250;6.776;2024-01-15T02:39:06;3.37;;;2.60;;
10653;SDS011;5375;51.250;6.776;2024-01-15T02:41:32;3.23;;;2.73;;
10653;SDS011;5375;51.250;6.776;2024-01-15T02:43:58;3.90;;;2.87;;
10653;SDS011;5375;51.250;6.776;2024-01-15T02:46:24;3.73;;;3.10;;
10653;SDS011;5375;51.250;6.776;2024-01-15T02:48:50;3.53;;;2.77;;
10653;SDS011;5375;51.250;6.776;2024-01-15T02:51:16;4.33;;;2.90;;
10653;SDS011;5375;51.250;6.776;2024-01-15T02:53:42;4.23;;;3.23;;
10653;SDS011;5375;51.250;6.776;2024-01-15T02:56:08;2.83;;;2.50;;
10653;SDS011;5375;51.250;6.776;2024-01-15T02:58:34;3.50;;;2.60;;
10653;SDS011;5375;51.250;6.776;2024-01-15T03:01:00;3.47;;;2.90;;
10653;SDS011;5375;51.250;6.776;2024-01-15T03:03:26;3.50;;;2.70;;
10653;SDS011;5375;51.250;6.776;2024-01-15T03:05:52;3.40;;;3.10;;
10653;SDS011;5375;51.250;6.776;2024-01-15T03:08:21;3.07;;;2.77;;
10653;SDS011;5375;51.250;6.776;2024-01-15T03:10:47;2.93;;;2.50;;
10653;SDS011;5375;51.250;6.776;2024-01-15T03:13:13;4.40;;;3.20;;
10653;SDS011;5375;51.250;6.776;2024-01-15T03:15:39;3.67;;;2.80;;
10653;SDS011;5375;51.250;6.776;2024-01-15T03:18:05;4.53;;;3.07;;
10653;SDS011;5375;51.250;6.776;2024-01-15T03:20:32;4.17;;;3.00;;
10653;SDS011;5375;51.250;6.776;2024-01-15T03:22:57;3.90;;;2.80;;
10653;SDS011;5375;51.250;6.776;2024-01-15T03:25:23;3.57;;;2.73;;
10653;SDS011;5375;51.250;6.776;2024-01-15T03:27:49;2.63;;;2.43;;
10653;SDS011;5375;51.250;6.776;2024-01-15T03:30:15;3.53;;;3.03;;
10653;SDS011;5375;51.250;6.776;2024-01-15T03:32:41;2.90;;;2.57;;
10653;SDS011;5375;51.250;6.776;2024-01-15T03:35:07;3.13;;;2.60;;
10653;SDS011;5375;51.250;6.776;2024-01-15T03:37:33;3.83;;;2.60;;
10653;SDS011;5375;51.250;6.776;2024-01-15T03:39:59;3.77;;;2.97;;
10653;SDS011;5375;51.250;6.776;2024-01-15T03:42:25;3.13;;;2.60;;
10653;SDS011;5375;51.250;6.776;2024-01-15T03:44:51;3.80;;;2.47;;
10653;SDS011;5375;51.250;6.776;2024-01-15T03:47:17;4.07;;;2.80;;
10653;SDS011;5375;51.250;6.776;2024-01-15T03:49:42;3.83;;;2.87;;
10653;SDS011;5375;51.250;6.776;2024-01-15T03:52:08;2.93;;;2.50;;
10653;SDS011;5375;51.250;6.776;2024-01-15T03:54:34;3.60;;;2.60;;
10653;SDS011;5375;51.250;6.776;2024-01-15T03:57:00;3.03;;;2.53;;
10653;SDS011;5375;51.250;6.776;2024-01-15T03:59:26;3.33;;;2.37;;
10653;SDS011;5375;51.250;6.776;2024-01-15T04:01:52;2.67;;;2.17;;
10653;SDS011;5375;51.250;6.776;2024-01-15T04:04:18;2.60;;;2.40;;
10653;SDS011;5375;51.250;6.776;2024-01-15T04:06:44;10.00;;;3.03;;
10653;SDS011;5375;51.250;6.776;2024-01-15T04:09:11;3.83;;;2.60;;
10653;SDS011;5375;51.250;6.776;2024-01-15T04:11:38;5.10;;;2.50;;
10653;SDS011;5375;51.250;6.776;2024-01-15T04:14:04;3.07;;;2.40;;
10653;SDS011;5375;51.250;6.776;2024-01-15T04:16:30;5.67;;;2.40;;
10653;SDS011;5375;51.250;6.776;2024-01-15T04:18:56;5.43;;;2.17;;
10653;SDS011;5375;51.250;6.776;2024-01-15T04:21:23;3.53;;;2.50;;
10653;SDS011;5375;51.250;6.776;2024-01-15T04:23:49;2.73;;;2.40;;
10653;SDS011;5375;51.250;6.776;2024-01-15T04:26:15;4.43;;;2.27;;
10653;SDS011;5375;51.250;6.776;2024-01-15T04:28:40;2.63;;;2.33;;
10653;SDS011;5375;51.250;6.776;2024-01-15T04:31:06;3.13;;;2.50;;
10653;SDS011;5375;51.250;6.776;2024-01-15T04:33:32;3.50;;;2.13;;
10653;SDS011;5375;51.250;6.776;2024-01-15T04:36:01;4.60;;;2.40;;
10653;SDS011;5375;51.250;6.776;2024-01-15T04:38:29;2.50;;;2.20;;
10653;SDS011;5375;51.250;6.776;2024-01-15T04:40:55;3.70;;;2.10;;
10653;SDS011;5375;51.250;6.776;2024-01-15T04:43:21;2.57;;;2.30;;
10653;SDS011;5375;51.250;6.776;2024-01-15T04:45:47;3.47;;;2.40;;
10653;SDS011;5375;51.250;6.776;2024-01-15T04:48:12;3.40;;;1.97;;
10653;SDS011;5375;51.250;6.776;2024-01-15T04:50:43;2.57;;;2.17;;
10653;SDS011;5375;51.250;6.776;2024-01-15T04:53:09;3.10;;;2.30;;
10653;SDS011;5375;51.250;6.776;2024-01-15T04:55:35;2.17;;;1.90;;
10653;SDS011;5375;51.250;6.776;2024-01-15T04:58:01;2.53;;;1.83;;
10653;SDS011;5375;51.250;6.776;2024-01-15T05:00:27;3.03;;;2.00;;
10653;SDS011;5375;51.250;6.776;2024-01-15T05:02:53;2.73;;;2.33;;
10653;SDS011;5375;51.250;6.776;2024-01-15T05:05:21;2.50;;;1.87;;
10653;SDS011;5375;51.250;6.776;2024-01-15T05:07:48;2.90;;;1.90;;
10653;SDS011;5375;51.250;6.776;2024-01-15T05:10:14;2.20;;;2.00;;
10653;SDS011;5375;51.250;6.776;2024-01-15T05:12:40;3.17;;;1.90;;
10653;SDS011;5375;51.250;6.776;2024-01-15T05:15:06;2.57;;;2.10;;
10653;SDS011;5375;51.250;6.776;2024-01-15T05:17:32;2.60;;;1.90;;
10653;SDS011;5375;51.250;6.776;2024-01-15T05:19:58;3.13;;;2.10;;
10653;SDS011;5375;51.250;6.776;2024-01-15T05:22:24;2.90;;;1.83;;
10653;SDS011;5375;51.250;6.776;2024-01-15T05:24:50;4.30;;;2.10;;
10653;SDS011;5375;51.250;6.776;2024-01-15T05:27:16;3.10;;;1.93;;
10653;SDS011;5375;51.250;6.776;2024-01-15T05:29:42;2.17;;;1.97;;
10653;SDS011;5375;51.250;6.776;2024-01-15T05:32:08;3.73;;;2.00;;
10653;SDS011;5375;51.250;6.776;2024-01-15T05:34:34;4.23;;;2.17;;
10653;SDS011;5375;51.250;6.776;2024-01-15T05:37:00;3.83;;;1.90;;
10653;SDS011;5375;51.250;6.776;2024-01-15T05:39:26;3.23;;;1.87;;
10653;SDS011;5375;51.250;6.776;2024-01-15T05:41:52;2.30;;;1.67;;
10653;SDS011;5375;51.250;6.776;2024-01-15T05:44:18;6.57;;;1.63;;
10653;SDS011;5375;51.250;6.776;2024-01-15T05:46:44;3.73;;;1.90;;
10653;SDS011;5375;51.250;6.776;2024-01-15T05:49:10;2.07;;;1.50;;
10653;SDS011;5375;51.250;6.776;2024-01-15T05:51:36;2.37;;;1.60;;
10653;SDS011;5375;51.250;6.776;2024-01-15T05:54:02;2.53;;;1.90;;
10653;SDS011;5375;51.250;6.776;2024-01-15T05:56:28;3.07;;;1.90;;
10653;SDS011;5375;51.250;6.776;2024-01-15T05:58:54;3.27;;;1.80;;
10653;SDS011;5375;51.250;6.776;2024-01-15T06:01:20;5.67;;;1.90;;
10653;SDS011;5375;51.250;6.776;2024-01-15T06:03:46;2.10;;;1.60;;
10653;SDS011;5375;51.250;6.776;2024-01-15T06:06:12;2.07;;;1.67;;
10653;SDS011;5375;51.250;6.776;2024-01-15T06:08:37;3.03;;;1.60;;
10653;SDS011;5375;51.250;6.776;2024-01-15T06:11:03;2.97;;;1.57;;
10653;SDS011;5375;51.250;6.776;2024-01-15T06:13:29;2.10;;;1.63;;
10653;SDS011;5375;51.250;6.776;2024-01-15T06:15:55;2.03;;;1.60;;
10653;SDS011;5375;51.250;6.776;2024-01-15T06:18:21;3.20;;;1.70;;
10653;SDS011;5375;51.250;6.776;2024-01-15T06:20:47;3.57;;;1.87;;
10653;SDS011;5375;51.250;6.776;2024-01-15T06:23:13;3.17;;;1.73;;
10653;SDS011;5375;51.250;6.776;2024-01-15T06:25:39;2.37;;;1.40;;
10653;SDS011;5375;51.250;6.776;2024-01-15T06:28:05;2.27;;;1.50;;
10653;SDS011;5375;51.250;6.776;2024-01-15T06:30:31;1.73;;;1.40;;
10653;SDS011;5375;51.250;6.776;2024-01-15T06:32:57;1.67;;;1.33;;
10653;SDS011;5375;51.250;6.776;2024-01-15T06:35:23;1.73;;;1.33;;
10653;SDS011;5375;51.250;6.776;2024-01-15T06:37:49;2.43;;;1.30;;
10653;SDS011;5375;51.250;6.776;2024-01-15T06:40:15;2.07;;;1.40;;
10653;SDS011;5375;51.250;6.776;2024-01-15T06:42:41;2.00;;;1.40;;
10653;SDS011;5375;51.250;6.776;2024-01-15T06:45:07;5.67;;;1.43;;
10653;SDS011;5375;51.250;6.776;2024-01-15T06:47:33;2.33;;;1.17;;
10653;SDS011;5375;51.250;6.776;2024-01-15T06:49:59;1.67;;;1.20;;
10653;SDS011;5375;51.250;6.776;2024-01-15T06:52:25;2.77;;;1.33;;
10653;SDS011;5375;51.250;6.776;2024-01-15T06:54:51;2.50;;;1.37;;
10653;SDS011;5375;51.250;6.776;2024-01-15T06:57:17;3.10;;;2.00;;
10653;SDS011;5375;51.250;6.776;2024-01-15T06:59:45;1.40;;;1.20;;
10653;SDS011;5375;51.250;6.776;2024-01-15T07:02:11;1.80;;;1.30;;
10653;SDS011;5375;51.250;6.776;2024-01-15T07:04:37;2.33;;;1.10;;
10653;SDS011;5375;51.250;6.776;2024-01-15T07:07:03;3.40;;;1.60;;
10653;SDS011;5375;51.250;6.776;2024-01-15T07:09:29;1.90;;;1.20;;
10653;SDS011;5375;51.250;6.776;2024-01-15T07:11:55;5.57;;;1.53;;
10653;SDS011;5375;51.250;6.776;2024-01-15T07:14:23;2.17;;;1.50;;
10653;SDS011;5375;51.250;6.776;2024-01-15T07:16:49;3.00;;;1.30;;
10653;SDS011;5375;51.250;6.776;2024-01-15T07:19:15;2.23;;;1.30;;
10653;SDS011;5375;51.250;6.776;2024-01-15T07:21:41;2.13;;;1.40;;
10653;SDS011;5375;51.250;6.776;2024-01-15T07:24:08;1.83;;;1.40;;
10653;SDS011;5375;51.250;6.776;2024-01-15T07:26:34;2.50;;;1.40;;
10653;SDS011;5375;51.250;6.776;2024-01-15T07:29:00;2.93;;;1.40;;
10653;SDS011;5375;51.250;6.776;2024-01-15T07:31:26;1.50;;;1.20;;
10653;SDS011;5375;51.250;6.776;2024-01-15T07:33:53;1.77;;;1.30;;
10653;SDS011;5375;51.250;6.776;2024-01-15T07:36:20;1.87;;;1.23;;
10653;SDS011;5375;51.250;6.776;2024-01-15T07:38:46;1.67;;;1.20;;
10653;SDS011;5375;51.250;6.776;2024-01-15T07:41:13;2.63;;;1.50;;
10653;SDS011;5375;51.250;6.776;2024-01-15T07:43:38;1.93;;;1.20;;
10653;SDS011;5375;51.250;6.776;2024-01-15T07:46:04;1.53;;;1.10;;
10653;SDS011;5375;51.250;6.776;2024-01-15T07:48:32;1.40;;;1.13;;
10653;SDS011;5375;51.250;6.776;2024-01-15T07:50:58;1.43;;;1.10;;
10653;SDS011;5375;51.250;6.776;2024-01-15T07:53:24;1.57;;;1.23;;
10653;SDS011;5375;51.250;6.776;2024-01-15T07:55:50;1.80;;;1.20;;
10653;SDS011;5375;51.250;6.776;2024-01-15T07:58:16;3.73;;;1.00;;
10653;SDS011;5375;51.250;6.776;2024-01-15T08:00:42;1.40;;;0.93;;
10653;SDS011;5375;51.250;6.776;2024-01-15T08:03:08;1.70;;;1.00;;
10653;SDS011;5375;51.250;6.776;2024-01-15T08:05:34;1.83;;;1.17;;
10653;SDS011;5375;51.250;6.776;2024-01-15T08:08:00;2.43;;;1.40;;
10653;SDS011;5375;51.250;6.776;2024-01-15T08:10:26;1.60;;;1.10;;
10653;SDS011;5375;51.250;6.776;2024-01-15T08:12:52;3.87;;;1.33;;
10653;SDS011;5375;51.250;6.776;2024-01-15T08:15:18;2.07;;;1.10;;
10653;SDS011;5375;51.250;6.776;2024-01-15T08:17:44;1.77;;;1.30;;
10653;SDS011;5375;51.250;6.776;2024-01-15T08:20:10;1.07;;;0.87;;
10653;SDS011;5375;51.250;6.776;2024-01-15T08:22:38;2.10;;;1.07;;
10653;SDS011;5375;51.250;6.776;2024-01-15T08:25:04;1.70;;;1.20;;
10653;SDS011;5375;51.250;6.776;2024-01-15T08:27:30;1.10;;;1.00;;
10653;SDS011;5375;51.250;6.776;2024-01-15T08:29:56;1.47;;;0.90;;
10653;SDS011;5375;51.250;6.776;2024-01-15T08:32:22;2.13;;;1.20;;
10653;SDS011;5375;51.250;6.776;2024-01-15T08:34:47;1.77;;;0.90;;
10653;SDS011;5375;51.250;6.776;2024-01-15T08:37:17;0.97;;;0.90;;
10653;SDS011;5375;51.250;6.776;2024-01-15T08:39:44;1.00;;;0.90;;
10653;SDS011;5375;51.250;6.776;2024-01-15T08:42:10;3.60;;;1.13;;
10653;SDS011;5375;51.250;6.776;2024-01-15T08:44:36;2.77;;;0.93;;
10653;SDS011;5375;51.250;6.776;2024-01-15T08:47:04;1.10;;;0.97;;
10653;SDS011;5375;51.250;6.776;2024-01-15T08:49:30;3.13;;;1.30;;
10653;SDS011;5375;51.250;6.776;2024-01-15T08:51:56;2.70;;;1.20;;
10653;SDS011;5375;51.250;6.776;2024-01-15T08:54:22;2.17;;;1.20;;
10653;SDS011;5375;51.250;6.776;2024-01-15T08:56:48;1.20;;;0.97;;
10653;SDS011;5375;51.250;6.776;2024-01-15T08:59:14;1.30;;;0.90;;
10653;SDS011;5375;51.250;6.776;2024-01-15T09:01:40;1.50;;;0.80;;
10653;SDS011;5375;51.250;6.776;2024-01-15T09:04:06;1.43;;;1.10;;
10653;SDS011;5375;51.250;6.776;2024-01-15T09:06:32;1.97;;;1.00;;
10653;SDS011;5375;51.250;6.776;2024-01-15T09:08:58;1.77;;;0.83;;
10653;SDS011;5375;51.250;6.776;2024-01-15T09:11:25;2.33;;;0.90;;
10653;SDS011;5375;51.250;6.776;2024-01-15T09:13:51;1.93;;;1.10;;
10653;SDS011;5375;51.250;6.776;2024-01-15T09:16:17;1.87;;;1.00;;
10653;SDS011;5375;51.250;6.776;2024-01-15T09:18:43;0.90;;;0.80;;
10653;SDS011;5375;51.250;6.776;2024-01-15T09:21:09;1.30;;;0.90;;
10653;SDS011;5375;51.250;6.776;2024-01-15T09:23:34;1.50;;;1.00;;
10653;SDS011;5375;51.250;6.776;2024-01-15T09:26:00;1.07;;;0.80;;
10653;SDS011;5375;51.250;6.776;2024-01-15T09:28:27;2.87;;;0.97;;
10653;SDS011;5375;51.250;6.776;2024-01-15T09:30:53;4.47;;;1.10;;
10653;SDS011;5375;51.250;6.776;2024-01-15T09:33:19;1.50;;;1.00;;
10653;SDS011;5375;51.250;6.776;2024-01-15T09:35:45;0.70;;;0.70;;
10653;SDS011;5375;51.250;6.776;2024-01-15T09:38:11;4.03;;;0.97;;
10653;SDS011;5375;51.250;6.776;2024-01-15T09:40:37;1.77;;;0.97;;
10653;SDS011;5375;51.250;6.776;2024-01-15T09:43:05;0.80;;;0.70;;
10653;SDS011;5375;51.250;6.776;2024-01-15T09:45:31;0.70;;;0.70;;
10653;SDS011;5375;51.250;6.776;2024-01-15T09:47:57;1.00;;;0.90;;
10653;SDS011;5375;51.250;6.776;2024-01-15T09:50:23;1.30;;;0.90;;
10653;SDS011;5375;51.250;6.776;2024-01-15T09:52:49;1.17;;;0.80;;
10653;SDS011;5375;51.250;6.776;2024-01-15T09:55:17;2.23;;;0.83;;
10653;SDS011;5375;51.250;6.776;2024-01-15T09:57:43;2.47;;;1.00;;
10653;SDS011;5375;51.250;6.776;2024-01-15T10:00:10;1.70;;;0.87;;
10653;SDS011;5375;51.250;6.776;2024-01-15T10:02:37;2.40;;;0.80;;
10653;SDS011;5375;51.250;6.776;2024-01-15T10:05:03;1.03;;;0.90;;
10653;SDS011;5375;51.250;6.776;2024-01-15T10:07:29;0.83;;;0.70;;
10653;SDS011;5375;51.250;6.776;2024-01-15T10:09:56;2.00;;;0.73;;
10653;SDS011;5375;51.250;6.776;2024-01-15T10:12:22;1.10;;;1.00;;
10653;SDS011;5375;51.250;6.776;2024-01-15T10:14:48;0.87;;;0.70;;
10653;SDS011;5375;51.250;6.776;2024-01-15T10:17:14;1.07;;;0.90;;
10653;SDS011;5375;51.250;6.776;2024-01-15T10:19:40;0.70;;;0.70;;
10653;SDS011;5375;51.250;6.776;2024-01-15T10:22:07;1.17;;;0.80;;
10653;SDS011;5375;51.250;6.776;2024-01-15T10:24:35;1.23;;;0.90;;
10653;SDS011;5375;51.250;6.776;2024-01-15T10:27:07;1.27;;;0.80;;
10653;SDS011;5375;51.250;6.776;2024-01-15T10:29:34;0.83;;;0.77;;
10653;SDS011;5375;51.250;6.776;2024-01-15T10:32:00;1.43;;;0.90;;
10653;SDS011;5375;51.250;6.776;2024-01-15T10:34:26;1.07;;;0.80;;
10653;SDS011;5375;51.250;6.776;2024-01-15T10:36:54;0.77;;;0.70;;
10653;SDS011;5375;51.250;6.776;2024-01-15T10:39:23;1.23;;;0.67;;
10653;SDS011;5375;51.250;6.776;2024-01-15T10:41:49;0.70;;;0.63;;
10653;SDS011;5375;51.250;6.776;2024-01-15T10:44:16;1.00;;;0.70;;
10653;SDS011;5375;51.250;6.776;2024-01-15T10:46:43;0.87;;;0.60;;
10653;SDS011;5375;51.250;6.776;2024-01-15T10:49:09;0.80;;;0.80;;
10653;SDS011;5375;51.250;6.776;2024-01-15T10:51:36;0.80;;;0.77;;
10653;SDS011;5375;51.250;6.776;2024-01-15T10:54:02;1.20;;;0.70;;
10653;SDS011;5375;51.250;6.776;2024-01-15T10:56:29;1.33;;;0.80;;
10653;SDS011;5375;51.250;6.776;2024-01-15T10:58:56;2.63;;;0.70;;
10653;SDS011;5375;51.250;6.776;2024-01-15T11:01:22;1.57;;;0.70;;
10653;SDS011;5375;51.250;6.776;2024-01-15T11:03:49;0.90;;;0.60;;
10653;SDS011;5375;51.250;6.776;2024-01-15T11:06:18;1.10;;;0.60;;
10653;SDS011;5375;51.250;6.776;2024-01-15T11:08:48;0.63;;;0.63;;
10653;SDS011;5375;51.250;6.776;2024-01-15T11:11:17;1.00;;;0.70;;
10653;SDS011;5375;51.250;6.776;2024-01-15T11:13:43;0.63;;;0.60;;
10653;SDS011;5375;51.250;6.776;2024-01-15T11:16:10;0.70;;;0.60;;
10653;SDS011;5375;51.250;6.776;2024-01-15T11:21:21;1.10;;;0.60;;
10653;SDS011;5375;51.250;6.776;2024-01-15T11:23:57;1.17;;;0.60;;
10653;SDS011;5375;51.250;6.776;2024-01-15T11:28:57;1.27;;;0.70;;
10653;SDS011;5375;51.250;6.776;2024-01-15T11:31:26;0.87;;;0.80;;
10653;SDS011;5375;51.250;6.776;2024-01-15T11:34:12;1.53;;;0.80;;
10653;SDS011;5375;51.250;6.776;2024-01-15T11:44:22;0.90;;;0.70;;
10653;SDS011;5375;51.250;6.776;2024-01-15T11:51:55;1.57;;;0.53;;
10653;SDS011;5375;51.250;6.776;2024-01-15T11:54:23;0.97;;;0.80;;
10653;SDS011;5375;51.250;6.776;2024-01-15T11:56:49;1.53;;;0.80;;
10653;SDS011;5375;51.250;6.776;2024-01-15T11:59:16;1.37;;;0.60;;
10653;SDS011;5375;51.250;6.776;2024-01-15T12:01:42;1.00;;;0.70;;
10653;SDS011;5375;51.250;6.776;2024-01-15T12:04:08;2.70;;;0.67;;
10653;SDS011;5375;51.250;6.776;2024-01-15T12:06:34;0.80;;;0.60;;
10653;SDS011;5375;51.250;6.776;2024-01-15T12:09:06;3.70;;;0.87;;
10653;SDS011;5375;51.250;6.776;2024-01-15T12:11:33;0.73;;;0.50;;
10653;SDS011;5375;51.250;6.776;2024-01-15T12:14:01;0.90;;;0.60;;
10653;SDS011;5375;51.250;6.776;2024-01-15T12:16:27;0.97;;;0.67;;
10653;SDS011;5375;51.250;6.776;2024-01-15T12:18:53;1.30;;;0.70;;
10653;SDS011;5375;51.250;6.776;2024-01-15T12:21:19;1.20;;;0.60;;
10653;SDS011;5375;51.250;6.776;2024-01-15T12:23:46;0.57;;;0.57;;
10653;SDS011;5375;51.250;6.776;2024-01-15T12:26:13;1.03;;;0.70;;
10653;SDS011;5375;51.250;6.776;2024-01-15T12:28:39;1.60;;;0.77;;
10653;SDS011;5375;51.250;6.776;2024-01-15T12:31:05;1.37;;;0.80;;
10653;SDS011;5375;51.250;6.776;2024-01-15T12:33:33;1.10;;;0.70;;
10653;SDS011;5375;51.250;6.776;2024-01-15T12:35:58;2.20;;;0.60;;
10653;SDS011;5375;51.250;6.776;2024-01-15T12:38:24;1.23;;;0.70;;
10653;SDS011;5375;51.250;6.776;2024-01-15T12:40:50;1.73;;;0.70;;
10653;SDS011;5375;51.250;6.776;2024-01-15T12:43:17;1.40;;;0.70;;
10653;SDS011;5375;51.250;6.776;2024-01-15T12:45:43;1.00;;;0.60;;
10653;SDS011;5375;51.250;6.776;2024-01-15T12:48:09;1.40;;;1.03;;
10653;SDS011;5375;51.250;6.776;2024-01-15T12:50:35;1.07;;;0.60;;
10653;SDS011;5375;51.250;6.776;2024-01-15T12:53:01;2.03;;;0.80;;
10653;SDS011;5375;51.250;6.776;2024-01-15T12:55:27;0.70;;;0.70;;
10653;SDS011;5375;51.250;6.776;2024-01-15T12:57:53;1.37;;;0.70;;
10653;SDS011;5375;51.250;6.776;2024-01-15T13:00:20;1.23;;;0.60;;
10653;SDS011;5375;51.250;6.776;2024-01-15T13:02:46;1.37;;;0.60;;
10653;SDS011;5375;51.250;6.776;2024-01-15T13:05:12;1.00;;;0.70;;
10653;SDS011;5375;51.250;6.776;2024-01-15T13:07:38;1.57;;;0.60;;
10653;SDS011;5375;51.250;6.776;2024-01-15T13:10:05;0.87;;;0.70;;
10653;SDS011;5375;51.250;6.776;2024-01-15T13:12:31;1.07;;;0.50;;
10653;SDS011;5375;51.250;6.776;2024-01-15T13:14:58;1.50;;;0.63;;
10653;SDS011;5375;51.250;6.776;2024-01-15T13:17:24;0.90;;;0.70;;
10653;SDS011;5375;51.250;6.776;2024-01-15T13:19:50;0.83;;;0.60;;
10653;SDS011;5375;51.250;6.776;2024-01-15T13:22:16;1.00;;;0.70;;
10653;SDS011;5375;51.250;6.776;2024-01-15T13:24:41;0.80;;;0.57;;
10653;SDS011;5375;51.250;6.776;2024-01-15T13:27:08;0.90;;;0.73;;
10653;SDS011;5375;51.250;6.776;2024-01-15T13:29:34;2.40;;;0.60;;
10653;SDS011;5375;51.250;6.776;2024-01-15T13:32:00;1.03;;;0.60;;
10653;SDS011;5375;51.250;6.776;2024-01-15T13:34:26;2.17;;;0.67;;
10653;SDS011;5375;51.250;6.776;2024-01-15T13:36:52;2.13;;;0.77;;
10653;SDS011;5375;51.250;6.776;2024-01-15T13:39:18;1.27;;;0.60;;
10653;SDS011;5375;51.250;6.776;2024-01-15T13:41:48;1.53;;;0.60;;
10653;SDS011;5375;51.250;6.776;2024-01-15T13:44:14;1.97;;;0.63;;
10653;SDS011;5375;51.250;6.776;2024-01-15T13:46:40;1.30;;;0.60;;
10653;SDS011;5375;51.250;6.776;2024-01-15T13:49:07;0.83;;;0.50;;
10653;SDS011;5375;51.250;6.776;2024-01-15T13:51:34;0.83;;;0.50;;
10653;SDS011;5375;51.250;6.776;2024-01-15T13:54:01;0.90;;;0.50;;
10653;SDS011;5375;51.250;6.776;2024-01-15T13:56:29;1.33;;;0.80;;
10653;SDS011;5375;51.250;6.776;2024-01-15T13:58:57;1.17;;;0.70;;
10653;SDS011;5375;51.250;6.776;2024-01-15T14:01:23;1.10;;;0.70;;
10653;SDS011;5375;51.250;6.776;2024-01-15T14:03:49;0.80;;;0.53;;
10653;SDS011;5375;51.250;6.776;2024-01-15T14:06:15;1.00;;;0.63;;
10653;SDS011;5375;51.250;6.776;2024-01-15T14:08:41;0.97;;;0.67;;
10653;SDS011;5375;51.250;6.776;2024-01-15T14:11:07;0.80;;;0.50;;
10653;SDS011;5375;51.250;6.776;2024-01-15T14:13:35;0.60;;;0.50;;
10653;SDS011;5375;51.250;6.776;2024-01-15T14:16:01;0.90;;;0.50;;
10653;SDS011;5375;51.250;6.776;2024-01-15T14:18:27;0.50;;;0.50;;
10653;SDS011;5375;51.250;6.776;2024-01-15T14:20:53;0.50;;;0.50;;
10653;SDS011;5375;51.250;6.776;2024-01-15T14:23:19;0.90;;;0.50;;
10653;SDS011;5375;51.250;6.776;2024-01-15T14:25:45;1.20;;;0.60;;
10653;SDS011;5375;51.250;6.776;2024-01-15T14:28:11;0.90;;;0.50;;
10653;SDS011;5375;51.250;6.776;2024-01-15T14:30:37;2.27;;;0.60;;
10653;SDS011;5375;51.250;6.776;2024-01-15T14:33:03;0.70;;;0.50;;
10653;SDS011;5375;51.250;6.776;2024-01-15T14:35:29;1.27;;;0.60;;
10653;SDS011;5375;51.250;6.776;2024-01-15T14:37:56;1.20;;;0.60;;
10653;SDS011;5375;51.250;6.776;2024-01-15T14:40:23;1.13;;;0.67;;
10653;SDS011;5375;51.250;6.776;2024-01-15T14:42:49;0.80;;;0.60;;
10653;SDS011;5375;51.250;6.776;2024-01-15T14:45:16;0.80;;;0.47;;
10653;SDS011;5375;51.250;6.776;2024-01-15T14:47:42;0.73;;;0.60;;
10653;SDS011;5375;51.250;6.776;2024-01-15T14:50:09;0.97;;;0.70;;
10653;SDS011;5375;51.250;6.776;2024-01-15T14:52:35;1.27;;;0.50;;
10653;SDS011;5375;51.250;6.776;2024-01-15T14:55:01;0.73;;;0.53;;
10653;SDS011;5375;51.250;6.776;2024-01-15T14:57:27;0.67;;;0.50;;
10653;SDS011;5375;51.250;6.776;2024-01-15T14:59:54;1.30;;;0.43;;
10653;SDS011;5375;51.250;6.776;2024-01-15T15:02:20;1.70;;;0.60;;
10653;SDS011;5375;51.250;6.776;2024-01-15T15:04:46;2.07;;;0.70;;
10653;SDS011;5375;51.250;6.776;2024-01-15T15:07:12;1.23;;;0.50;;
10653;SDS011;5375;51.250;6.776;2024-01-15T15:09:38;2.00;;;0.70;;
10653;SDS011;5375;51.250;6.776;2024-01-15T15:12:04;2.33;;;0.63;;